Time;durP1;ratioP1;P1;durP2;ratioP2;P2;SDS_P1;SDS_P2;PMS_P1;PMS_P2;Temp;Humidity;BMP_temperature;BMP_pressure;BME280_temperature;BME280_humidity;BME280_pressure;Samples;Min_cycle;Max_cycle;Signal;HPM_P1;HPM_P2
2022/07/17 00:01:05;;;;;;;3.40;1.05;;;;;;;11.85;84.41;97243.80;1810414;77;20994;-84
2022/07/17 00:03:31;;;;;;;2.00;0.85;;;;;;;11.83;84.05;97243.16;1810891;77;21003;-84
2022/07/17 00:05:57;;;;;;;1.52;0.90;;;;;;;11.83;84.05;97250.16;1813897;77;21355;-83
2022/07/17 00:08:24;;;;;;;1.50;0.80;;;;;;;11.84;84.22;97253.90;1805810;77;21054;-83
2022/07/17 00:10:50;;;;;;;1.92;1.10;;;;;;;11.85;84.13;97250.31;1816778;77;21027;-84
2022/07/17 00:13:15;;;;;;;2.40;1.02;;;;;;;11.86;84.28;97256.33;1807246;79;21007;-84
2022/07/17 00:15:41;;;;;;;2.87;1.25;;;;;;;11.89;84.47;97262.53;1829064;77;21098;-84
2022/07/17 00:18:07;;;;;;;2.45;1.22;;;;;;;11.88;84.54;97269.53;1824670;77;21062;-83
2022/07/17 00:20:33;;;;;;;2.40;0.88;;;;;;;11.86;84.56;97269.35;1823346;78;21304;-84
2022/07/17 00:22:59;;;;;;;1.37;0.98;;;;;;;11.86;84.60;97268.86;1811079;77;20983;-84
2022/07/17 00:25:25;;;;;;;2.98;0.98;;;;;;;11.86;84.67;97267.55;1818822;77;20936;-84
2022/07/17 00:27:50;;;;;;;1.90;0.80;;;;;;;11.87;84.60;97269.67;1812807;77;20986;-84
2022/07/17 00:30:16;;;;;;;2.65;0.90;;;;;;;11.85;84.69;97264.63;1792304;79;20971;-84
2022/07/17 00:32:42;;;;;;;3.42;1.40;;;;;;;11.87;85.10;97265.27;1802032;79;21037;-84
2022/07/17 00:35:09;;;;;;;1.47;0.95;;;;;;;11.85;84.87;97269.84;1821890;78;21018;-84
2022/07/17 00:37:42;;;;;;;1.90;1.15;;;;;;;11.85;84.90;97263.33;1819763;78;20893;-84
2022/07/17 00:40:10;;;;;;;2.65;0.98;;;;;;;11.80;85.13;97262.22;1817279;77;20896;-84
2022/07/17 00:42:38;;;;;;;1.92;1.17;;;;;;;11.81;85.14;97266.45;1815595;79;21318;-84
2022/07/17 00:45:05;;;;;;;2.87;1.12;;;;;;;11.84;84.87;97273.42;1807193;77;20979;-82
2022/07/17 00:47:30;;;;;;;2.17;1.10;;;;;;;11.83;85.12;97277.02;1802261;79;20990;-83
2022/07/17 00:49:56;;;;;;;2.60;0.93;;;;;;;11.85;85.08;97280.75;1797293;77;21378;-83
2022/07/17 00:52:22;;;;;;;2.95;1.37;;;;;;;11.85;84.83;97287.26;1804149;77;20933;-83
2022/07/17 00:54:47;;;;;;;2.50;1.35;;;;;;;11.84;84.96;97290.84;1821604;77;20998;-83
2022/07/17 00:57:15;;;;;;;1.60;1.05;;;;;;;11.82;84.90;97291.02;1817898;77;21329;-83
2022/07/17 00:59:41;;;;;;;1.52;1.00;;;;;;;11.80;84.74;97290.38;1812834;79;21006;-83
2022/07/17 01:02:09;;;;;;;1.77;1.10;;;;;;;11.77;84.66;97285.47;1806995;77;21006;-82
2022/07/17 01:04:35;;;;;;;3.40;1.00;;;;;;;11.75;84.95;97286.13;1818692;79;20940;-84
2022/07/17 01:07:02;;;;;;;1.98;1.00;;;;;;;11.73;84.80;97288.09;1805307;79;20943;-83
2022/07/17 01:09:28;;;;;;;1.32;1.05;;;;;;;11.70;84.95;97288.41;1779775;79;20978;-82
2022/07/17 01:11:54;;;;;;;1.87;0.98;;;;;;;11.70;85.03;97291.00;1812863;77;20940;-83
2022/07/17 01:14:24;;;;;;;2.42;1.07;;;;;;;11.68;85.20;97283.36;1808633;77;20976;-82
2022/07/17 01:16:51;;;;;;;1.52;1.20;;;;;;;11.63;85.14;97283.55;1803940;77;21371;-82
2022/07/17 01:19:17;;;;;;;3.02;1.10;;;;;;;11.64;85.22;97292.98;1794572;78;21007;-83
2022/07/17 01:21:46;;;;;;;2.20;1.40;;;;;;;11.60;85.16;97289.09;1774848;79;21022;-83
2022/07/17 01:24:12;;;;;;;3.67;1.20;;;;;;;11.59;85.34;97292.19;1794954;78;21011;-83
2022/07/17 01:26:44;;;;;;;2.62;1.50;;;;;;;11.57;85.05;97288.94;1798556;78;22040;-83
2022/07/17 01:29:13;;;;;;;1.98;1.20;;;;;;;11.57;85.16;97286.34;1793352;79;20979;-83
2022/07/17 01:31:40;;;;;;;1.85;1.17;;;;;;;11.56;85.28;97283.41;1789810;78;20956;-83
2022/07/17 01:34:06;;;;;;;1.40;1.10;;;;;;;11.54;85.07;97284.05;1831854;77;21425;-84
2022/07/17 01:36:32;;;;;;;1.57;1.40;;;;;;;11.55;85.06;97283.55;1790409;79;20983;-83
2022/07/17 01:38:57;;;;;;;3.60;1.52;;;;;;;11.53;84.99;97285.51;1790161;79;20930;-83
2022/07/17 01:41:23;;;;;;;2.05;1.37;;;;;;;11.48;85.10;97280.00;1778286;78;21335;-84
2022/07/17 01:43:49;;;;;;;3.05;1.30;;;;;;;11.42;85.30;97278.39;1808669;79;20937;-83
2022/07/17 01:46:15;;;;;;;2.47;1.12;;;;;;;11.39;85.30;97281.81;1835573;77;20979;-84
2022/07/17 01:48:40;;;;;;;2.17;1.10;;;;;;;11.36;85.29;97275.13;1784956;78;21354;-82
2022/07/17 01:51:06;;;;;;;2.80;1.52;;;;;;;11.34;85.38;97281.47;1779097;78;20989;-82
2022/07/17 01:53:32;;;;;;;3.62;1.20;;;;;;;11.34;85.61;97280.17;1789143;79;21083;-83
2022/07/17 01:55:58;;;;;;;3.22;1.32;;;;;;;11.34;85.52;97278.38;1782871;78;21318;-83
2022/07/17 01:58:23;;;;;;;2.95;1.62;;;;;;;11.35;85.77;97279.20;1785581;78;20975;-83
2022/07/17 02:00:50;;;;;;;2.40;1.60;;;;;;;11.36;85.73;97284.23;1795959;78;20940;-83
2022/07/17 02:03:17;;;;;;;2.33;1.60;;;;;;;11.36;85.58;97284.23;1774175;79;20951;-83
2022/07/17 02:05:43;;;;;;;2.62;1.80;;;;;;;11.32;85.64;97279.53;1795147;78;21378;-83
2022/07/17 02:08:08;;;;;;;2.58;1.82;;;;;;;11.30;85.57;97277.58;1827286;77;20991;-83
2022/07/17 02:10:34;;;;;;;5.50;1.75;;;;;;;11.29;85.52;97285.06;1770898;79;20982;-83
2022/07/17 02:13:00;;;;;;;1.80;1.47;;;;;;;11.29;85.74;97278.56;1771245;78;20955;-83
2022/07/17 02:15:26;;;;;;;3.00;1.62;;;;;;;11.29;85.71;97280.67;1809083;77;20954;-83
2022/07/17 02:17:52;;;;;;;3.30;1.45;;;;;;;11.28;85.70;97287.34;1822407;77;21386;-84
2022/07/17 02:20:18;;;;;;;3.25;1.72;;;;;;;11.27;85.63;97285.72;1799781;79;20981;-84
2022/07/17 02:22:44;;;;;;;2.33;1.77;;;;;;;11.26;85.71;97287.52;1787866;78;20951;-83
2022/07/17 02:25:10;;;;;;;3.02;1.70;;;;;;;11.23;85.77;97295.65;1801366;79;21020;-83
2022/07/17 02:27:36;;;;;;;2.65;1.47;;;;;;;11.20;86.02;97286.84;1782863;78;20916;-83
2022/07/17 02:30:10;;;;;;;3.90;2.00;;;;;;;11.15;85.89;97293.03;1820800;79;20965;-84
2022/07/17 02:32:36;;;;;;;3.85;1.70;;;;;;;11.14;85.81;97291.41;1771280;79;20966;-83
2022/07/17 02:35:04;;;;;;;2.70;1.57;;;;;;;11.14;85.78;97288.81;1798254;79;21059;-83
2022/07/17 02:37:30;;;;;;;2.70;1.77;;;;;;;11.13;85.92;97288.48;1781511;78;21047;-83
2022/07/17 02:39:55;;;;;;;4.72;1.72;;;;;;;11.14;85.93;97284.91;1793387;78;21070;-83
2022/07/17 02:42:24;;;;;;;4.00;2.47;;;;;;;11.18;85.91;97285.39;1799156;78;21024;-84
2022/07/17 02:44:49;;;;;;;3.52;1.75;;;;;;;11.17;85.83;97284.58;1799504;78;20984;-82
2022/07/17 02:47:31;;;;;;;3.95;1.85;;;;;;;11.17;85.89;97295.47;1802648;78;21448;-83
2022/07/17 02:49:56;;;;;;;4.08;1.70;;;;;;;11.14;86.01;97290.11;1803513;78;20970;-84
2022/07/17 02:52:23;;;;;;;3.70;1.70;;;;;;;11.11;85.94;97287.35;1801093;78;21033;-85
2022/07/17 02:54:48;;;;;;;2.08;1.60;;;;;;;11.10;85.93;97296.13;1796597;79;21036;-83
2022/07/17 02:57:14;;;;;;;4.65;2.02;;;;;;;11.12;85.92;97297.27;1789494;79;20972;-84
2022/07/17 02:59:40;;;;;;;2.50;1.95;;;;;;;11.12;85.66;97289.47;1802925;79;21436;-82
2022/07/17 03:02:06;;;;;;;2.58;1.75;;;;;;;11.11;85.64;97297.75;1799497;78;20974;-84
2022/07/17 03:04:31;;;;;;;2.92;1.98;;;;;;;11.11;85.85;97292.55;1845117;77;20979;-84
2022/07/17 03:06:57;;;;;;;2.87;1.45;;;;;;;11.11;85.81;97297.75;1798349;79;21343;-83
2022/07/17 03:09:23;;;;;;;2.37;1.90;;;;;;;11.09;85.84;97295.80;1768374;79;21058;-83
2022/07/17 03:11:49;;;;;;;3.87;1.72;;;;;;;11.07;86.00;97300.84;1821308;77;20997;-83
2022/07/17 03:14:14;;;;;;;2.70;1.45;;;;;;;11.05;85.86;97304.89;1792061;79;21009;-84
2022/07/17 03:16:40;;;;;;;2.10;1.62;;;;;;;11.06;85.88;97307.00;1762709;78;21078;-83
2022/07/17 03:19:06;;;;;;;2.62;1.70;;;;;;;11.04;85.84;97308.46;1749864;81;20995;-83
2022/07/17 03:21:32;;;;;;;2.00;1.57;;;;;;;11.05;85.79;97313.17;1747993;81;20982;-83
2022/07/17 03:23:57;;;;;;;2.90;1.67;;;;;;;11.04;85.86;97316.75;1757751;81;20955;-84
2022/07/17 03:26:23;;;;;;;3.70;1.67;;;;;;;11.03;85.81;97317.24;1746094;81;21015;-83
2022/07/17 03:28:49;;;;;;;4.00;1.70;;;;;;;11.03;85.89;97312.05;1755043;82;20953;-83
2022/07/17 03:31:15;;;;;;;3.50;1.90;;;;;;;11.04;85.92;97317.56;1782017;80;21320;-82
2022/07/17 03:33:40;;;;;;;4.08;1.80;;;;;;;11.02;86.04;97318.70;1740721;81;20951;-83
2022/07/17 03:36:07;;;;;;;2.02;1.72;;;;;;;11.00;86.08;97320.17;1783938;80;20953;-84
2022/07/17 03:38:33;;;;;;;5.28;1.55;;;;;;;10.99;86.07;97322.45;1782933;80;21380;-83
2022/07/17 03:40:58;;;;;;;6.90;1.62;;;;;;;11.00;86.08;97324.07;1780982;80;21032;-83
2022/07/17 03:43:24;;;;;;;2.83;1.60;;;;;;;11.01;86.00;97329.59;1778253;80;21012;-82
2022/07/17 03:45:50;;;;;;;3.22;1.50;;;;;;;11.02;86.09;97330.41;1749109;81;20923;-83
2022/07/17 03:48:17;;;;;;;5.05;1.75;;;;;;;11.03;86.12;97334.63;1756855;81;20958;-83
2022/07/17 03:50:43;;;;;;;5.03;2.00;;;;;;;11.06;86.23;97336.45;1758497;81;21039;-83
2022/07/17 03:53:08;;;;;;;3.27;1.60;;;;;;;11.04;86.20;97337.56;1754302;80;21320;-83
2022/07/17 03:55:34;;;;;;;2.80;1.57;;;;;;;11.04;86.40;97338.86;1743440;82;20974;-84
2022/07/17 03:58:00;;;;;;;2.27;1.57;;;;;;;11.02;86.43;97337.72;1745714;81;20908;-84
2022/07/17 04:00:25;;;;;;;4.08;1.52;;;;;;;11.02;86.47;97339.52;1769734;81;21433;-84
2022/07/17 04:02:51;;;;;;;3.92;1.50;;;;;;;11.02;86.42;97346.02;1752496;81;20911;-83
2022/07/17 04:05:17;;;;;;;2.33;1.20;;;;;;;11.04;86.50;97340.16;1781971;80;20930;-84
2022/07/17 04:07:43;;;;;;;4.33;1.27;;;;;;;11.06;86.45;97342.95;1750547;81;21380;-84
2022/07/17 04:10:11;;;;;;;2.30;1.32;;;;;;;11.07;86.53;97340.67;1762525;80;20980;-84
2022/07/17 04:12:37;;;;;;;3.70;1.70;;;;;;;11.09;86.66;97337.42;1759573;81;21069;-84
2022/07/17 04:15:03;;;;;;;2.62;1.60;;;;;;;11.13;86.70;97347.82;1773836;81;21035;-84
2022/07/17 04:17:29;;;;;;;2.58;1.22;;;;;;;11.13;86.68;97353.52;1789805;78;20988;-83
2022/07/17 04:19:54;;;;;;;2.35;1.45;;;;;;;11.13;86.94;97351.73;1795501;78;20947;-84
2022/07/17 04:22:21;;;;;;;3.25;1.50;;;;;;;11.15;86.84;97354.16;1805863;78;20921;-84
2022/07/17 04:24:47;;;;;;;4.50;1.50;;;;;;;11.17;86.90;97349.61;1800254;78;20988;-85
2022/07/17 04:27:13;;;;;;;2.27;1.20;;;;;;;11.19;86.95;97351.55;1762378;78;20965;-85
2022/07/17 04:29:39;;;;;;;3.22;1.40;;;;;;;11.25;86.92;97357.44;1850329;77;20932;-84
2022/07/17 04:32:05;;;;;;;4.47;1.70;;;;;;;11.27;87.04;97361.98;1767108;80;20963;-83
2022/07/17 04:34:32;;;;;;;2.65;1.50;;;;;;;11.38;87.27;97363.43;1794338;79;20971;-84
2022/07/17 04:36:58;;;;;;;3.27;1.92;;;;;;;11.42;87.35;97360.36;1814212;79;21041;-84
2022/07/17 04:39:23;;;;;;;1.60;1.30;;;;;;;11.45;86.62;97365.72;1782422;78;21001;-84
2022/07/17 04:41:50;;;;;;;4.42;2.17;;;;;;;11.49;87.11;97366.20;1797009;78;21303;-83
2022/07/17 04:44:15;;;;;;;4.17;1.32;;;;;;;11.49;87.22;97366.20;1845227;77;20993;-85
2022/07/17 04:46:41;;;;;;;2.42;1.55;;;;;;;11.51;87.02;97370.75;1810567;78;20966;-84
2022/07/17 04:49:07;;;;;;;4.12;2.98;;;;;;;11.54;87.00;97366.52;1817446;78;20959;-84
2022/07/17 04:51:34;;;;;;;3.12;1.30;;;;;;;11.57;86.79;97370.13;1803576;79;21012;-83
2022/07/17 04:54:00;;;;;;;2.80;1.32;;;;;;;11.59;86.66;97367.67;1799747;78;21392;-84
2022/07/17 04:56:26;;;;;;;3.47;1.82;;;;;;;11.63;86.81;97368.16;1795286;78;21006;-84
2022/07/17 04:58:52;;;;;;;3.83;2.22;;;;;;;11.61;86.54;97373.52;1801184;78;21051;-84
2022/07/17 05:01:18;;;;;;;2.95;1.52;;;;;;;11.61;86.60;97375.31;1788006;78;21419;-84
2022/07/17 05:03:44;;;;;;;5.83;2.08;;;;;;;11.61;86.65;97374.83;1811377;78;20954;-84
2022/07/17 05:06:10;;;;;;;4.03;1.92;;;;;;;11.60;86.47;97382.31;1785447;78;21056;-83
2022/07/17 05:08:36;;;;;;;4.85;1.37;;;;;;;11.62;86.49;97381.66;1791638;79;21069;-83
2022/07/17 05:11:01;;;;;;;1.85;1.07;;;;;;;11.64;86.41;97385.40;1806860;77;20973;-83
2022/07/17 05:13:27;;;;;;;2.30;1.75;;;;;;;11.67;86.31;97384.58;1834393;77;20939;-84
2022/07/17 05:15:53;;;;;;;2.33;1.40;;;;;;;11.69;86.59;97392.22;1830405;77;21294;-84
2022/07/17 05:18:19;;;;;;;3.42;1.42;;;;;;;11.74;86.62;97395.16;1839411;77;20980;-84
2022/07/17 05:20:44;;;;;;;3.85;1.30;;;;;;;11.76;86.77;97391.09;1796477;79;21019;-83
2022/07/17 05:23:10;;;;;;;6.70;1.40;;;;;;;11.78;86.77;97397.76;1789268;79;20988;-82
2022/07/17 05:25:36;;;;;;;2.90;1.32;;;;;;;11.81;86.04;97389.64;1791626;80;21384;-83
2022/07/17 05:28:02;;;;;;;4.40;1.98;;;;;;;11.87;86.00;97390.77;1784189;79;21032;-84
2022/07/17 05:30:28;;;;;;;3.05;1.98;;;;;;;11.88;85.22;97392.42;1797292;78;20947;-84
2022/07/17 05:32:54;;;;;;;2.30;1.60;;;;;;;11.93;85.37;97395.33;1798933;78;20956;-84
2022/07/17 05:35:20;;;;;;;3.22;1.82;;;;;;;11.98;84.47;97394.34;1820283;78;21074;-83
2022/07/17 05:37:46;;;;;;;7.80;2.10;;;;;;;12.02;84.21;97399.53;1802852;79;20967;-83
2022/07/17 05:40:11;;;;;;;5.87;2.08;;;;;;;12.06;83.32;97402.64;1825202;78;20923;-84
2022/07/17 05:42:37;;;;;;;3.92;2.22;;;;;;;12.12;83.15;97398.88;1801365;79;21003;-84
2022/07/17 05:45:04;;;;;;;6.00;3.60;;;;;;;12.20;82.96;97402.78;1822405;78;21366;-83
2022/07/17 05:47:30;;;;;;;5.15;2.33;;;;;;;12.27;82.44;97415.94;1800915;78;20999;-83
2022/07/17 05:49:55;;;;;;;2.25;1.85;;;;;;;12.31;82.43;97415.92;1803065;79;21007;-83
2022/07/17 05:52:21;;;;;;;6.70;2.85;;;;;;;12.35;82.33;97416.39;1778130;79;21013;-84
2022/07/17 05:54:47;;;;;;;7.47;3.30;;;;;;;12.39;82.33;97419.83;1815070;79;21334;-83
2022/07/17 05:57:13;;;;;;;8.23;2.37;;;;;;;12.47;82.28;97425.48;1774166;80;21038;-83
2022/07/17 05:59:39;;;;;;;5.55;2.77;;;;;;;12.54;81.74;97425.97;1806770;79;20986;-83
2022/07/17 06:02:04;;;;;;;13.45;6.08;;;;;;;12.61;81.03;97422.19;1783635;78;21020;-83
2022/07/17 06:04:30;;;;;;;6.55;3.00;;;;;;;12.66;80.91;97423.78;1786651;78;21400;-83
2022/07/17 06:06:56;;;;;;;4.78;3.00;;;;;;;12.72;80.47;97423.62;1802996;78;21016;-84
2022/07/17 06:09:22;;;;;;;4.67;2.35;;;;;;;12.77;79.91;97426.03;1805200;78;21167;-84
2022/07/17 06:11:47;;;;;;;4.72;1.90;;;;;;;12.79;79.46;97433.19;1792646;78;20941;-84
2022/07/17 06:14:13;;;;;;;4.75;2.50;;;;;;;12.84;79.72;97424.84;1794149;78;21072;-84
2022/07/17 06:16:39;;;;;;;6.25;2.70;;;;;;;12.88;79.36;97425.66;1800849;78;20929;-84
2022/07/17 06:19:05;;;;;;;3.62;2.08;;;;;;;12.95;79.51;97431.00;1797694;78;21003;-84
2022/07/17 06:21:30;;;;;;;4.67;1.75;;;;;;;13.03;79.32;97432.77;1786770;78;20959;-84
2022/07/17 06:23:56;;;;;;;5.17;2.30;;;;;;;13.10;79.12;97431.08;1805695;78;20920;-83
2022/07/17 06:26:22;;;;;;;5.05;2.58;;;;;;;13.16;78.89;97433.80;1792534;78;20978;-85
2022/07/17 06:28:48;;;;;;;6.33;3.10;;;;;;;13.22;77.41;97431.05;1803591;78;20983;-84
2022/07/17 06:31:14;;;;;;;6.10;1.92;;;;;;;13.28;78.12;97437.37;1803883;78;20924;-83
2022/07/17 06:33:40;;;;;;;8.25;2.83;;;;;;;13.33;77.43;97437.66;1797882;78;20973;-83
2022/07/17 06:36:05;;;;;;;4.30;1.95;;;;;;;13.39;77.81;97442.20;1805088;78;20970;-84
2022/07/17 06:38:33;;;;;;;4.80;1.65;;;;;;;13.45;76.40;97448.02;1802761;78;21017;-84
2022/07/17 06:41:00;;;;;;;2.92;1.32;;;;;;;13.49;76.20;97438.35;1792623;78;20943;-84
2022/07/17 06:43:27;;;;;;;2.70;1.20;;;;;;;13.56;76.51;97444.20;1781758;79;21129;-83
2022/07/17 06:45:54;;;;;;;3.12;1.55;;;;;;;13.60;75.48;97440.25;1798505;78;21031;-84
2022/07/17 06:48:20;;;;;;;3.10;1.37;;;;;;;13.64;76.66;97442.83;1771469;79;20952;-84
2022/07/17 06:50:46;;;;;;;4.15;1.40;;;;;;;13.70;76.51;97443.45;1794127;78;22081;-84
2022/07/17 06:53:12;;;;;;;4.40;1.00;;;;;;;13.76;76.00;97438.82;1796801;78;20974;-83
2022/07/17 06:55:38;;;;;;;3.08;1.20;;;;;;;13.87;75.67;97445.44;1800837;78;20990;-84
2022/07/17 06:58:04;;;;;;;4.05;2.25;;;;;;;13.95;75.71;97442.73;1798609;78;21026;-84
2022/07/17 07:00:30;;;;;;;3.20;1.70;;;;;;;14.05;75.59;97456.37;1800214;78;21418;-83
2022/07/17 07:02:56;;;;;;;4.35;1.95;;;;;;;14.12;74.74;97454.66;1757812;81;20925;-83
2022/07/17 07:05:21;;;;;;;6.25;2.02;;;;;;;14.15;75.18;97460.03;1796580;80;20978;-82
2022/07/17 07:07:47;;;;;;;7.17;2.83;;;;;;;14.26;75.37;97453.88;1797276;79;20963;-84
2022/07/17 07:10:13;;;;;;;3.37;1.62;;;;;;;14.39;75.22;97461.11;1790457;78;21035;-84
2022/07/17 07:12:38;;;;;;;5.30;2.17;;;;;;;14.42;74.69;97461.56;1796942;78;20939;-84
2022/07/17 07:15:05;;;;;;;3.17;1.50;;;;;;;14.45;74.18;97463.53;1787460;79;20983;-84
2022/07/17 07:17:34;;;;;;;4.78;1.50;;;;;;;14.59;74.07;97466.16;1787449;78;20996;-84
2022/07/17 07:20:03;;;;;;;4.37;1.72;;;;;;;14.72;74.24;97464.22;1773959;80;20953;-87
2022/07/17 07:22:29;;;;;;;7.50;1.47;;;;;;;14.86;74.72;97472.56;1755529;80;21364;-87
2022/07/17 07:24:55;;;;;;;4.50;1.50;;;;;;;14.93;74.17;97472.13;1764120;80;20961;-84
2022/07/17 07:27:22;;;;;;;4.30;1.17;;;;;;;14.99;72.81;97467.50;1766692;80;21075;-87
2022/07/17 07:29:47;;;;;;;5.08;1.42;;;;;;;15.06;73.43;97471.48;1762365;80;21060;-87
2022/07/17 07:32:13;;;;;;;3.90;1.35;;;;;;;15.10;72.64;97468.00;1743847;81;21028;-84
2022/07/17 07:34:39;;;;;;;3.52;1.55;;;;;;;15.16;72.85;97467.29;1762631;80;21408;-82
2022/07/17 07:37:05;;;;;;;5.35;2.15;;;;;;;15.25;72.31;97464.36;1753747;81;20921;-82
2022/07/17 07:39:31;;;;;;;2.98;1.40;;;;;;;15.36;71.71;97464.38;1755281;81;21009;-82
2022/07/17 07:41:56;;;;;;;3.27;1.17;;;;;;;15.39;71.33;97463.20;1765627;79;21393;-81
2022/07/17 07:44:22;;;;;;;3.12;1.07;;;;;;;15.52;70.41;97467.27;1774956;80;21023;-85
2022/07/17 07:46:48;;;;;;;5.10;2.35;;;;;;;15.56;70.72;97472.44;1760963;80;21366;-82
2022/07/17 07:49:15;;;;;;;7.12;3.35;;;;;;;15.58;71.23;97474.38;1774671;80;21012;-86
2022/07/17 07:51:41;;;;;;;4.08;1.90;;;;;;;15.58;71.39;97473.06;1746633;79;20991;-82
2022/07/17 07:54:07;;;;;;;4.10;1.57;;;;;;;15.66;71.17;97471.67;1759457;80;21022;-85
2022/07/17 07:56:33;;;;;;;4.03;1.20;;;;;;;15.76;72.24;97473.47;1743540;81;21024;-85
2022/07/17 07:58:59;;;;;;;4.65;2.70;;;;;;;15.90;71.70;97469.97;1753100;81;21451;-85
2022/07/17 08:01:25;;;;;;;3.67;1.70;;;;;;;16.05;70.73;97474.33;1780770;79;20953;-85
2022/07/17 08:03:51;;;;;;;8.50;2.12;;;;;;;16.13;71.16;97480.27;1790416;79;21000;-82
2022/07/17 08:06:17;;;;;;;5.58;2.98;;;;;;;16.17;71.04;97480.19;1772600;79;20933;-82
2022/07/17 08:08:43;;;;;;;3.90;1.60;;;;;;;16.27;69.84;97480.34;1775863;79;21036;-86
2022/07/17 08:11:09;;;;;;;5.10;1.42;;;;;;;16.35;69.79;97478.89;1773732;79;21332;-82
2022/07/17 08:13:34;;;;;;;5.45;2.02;;;;;;;16.38;69.51;97483.25;1774842;79;20960;-82
2022/07/17 08:16:00;;;;;;;10.10;5.30;;;;;;;16.42;68.84;97481.86;1762903;79;20953;-85
2022/07/17 08:18:26;;;;;;;3.87;1.62;;;;;;;16.39;68.75;97482.75;1790214;78;21020;-85
2022/07/17 08:20:53;;;;;;;7.47;3.75;;;;;;;16.43;68.51;97483.52;1802732;78;20966;-86
2022/07/17 08:23:20;;;;;;;6.83;2.58;;;;;;;16.44;68.68;97488.26;1787154;80;20967;-85
2022/07/17 08:25:47;;;;;;;4.03;1.20;;;;;;;16.43;68.12;97488.76;1791806;78;21014;-86
2022/07/17 08:28:13;;;;;;;3.30;1.00;;;;;;;16.41;67.35;97486.80;1755009;81;20988;-85
2022/07/17 08:30:39;;;;;;;4.92;1.10;;;;;;;16.64;67.21;97478.69;1810445;78;21318;-83
2022/07/17 08:33:07;;;;;;;5.17;1.35;;;;;;;16.82;67.19;97480.83;1771048;79;20980;-84
2022/07/17 08:35:34;;;;;;;3.95;2.08;;;;;;;17.02;66.15;97485.67;1792160;78;21014;-83
2022/07/17 08:38:00;;;;;;;6.50;3.77;;;;;;;17.00;66.23;97488.19;1753424;81;21024;-85
2022/07/17 08:40:29;;;;;;;4.05;2.12;;;;;;;16.87;64.98;97493.37;1820948;78;20924;-87
2022/07/17 08:42:56;;;;;;;5.53;1.90;;;;;;;16.99;65.68;97491.31;1744121;81;21440;-85
2022/07/17 08:45:22;;;;;;;3.62;0.90;;;;;;;17.28;65.83;97495.98;1796405;80;21250;-86
2022/07/17 08:47:48;;;;;;;3.70;1.10;;;;;;;17.34;64.47;97495.19;1767744;80;22308;-83
2022/07/17 08:50:14;;;;;;;5.37;1.70;;;;;;;17.20;63.02;97502.71;1742392;80;20979;-84
2022/07/17 08:52:42;;;;;;;3.83;1.17;;;;;;;17.06;62.99;97506.59;1799468;80;20935;-85
2022/07/17 08:55:12;;;;;;;3.08;0.90;;;;;;;16.98;62.58;97510.70;1763649;81;21453;-84
2022/07/17 08:57:39;;;;;;;4.62;1.85;;;;;;;17.03;62.84;97500.92;1768769;81;20978;-85
2022/07/17 09:00:06;;;;;;;3.05;1.00;;;;;;;17.34;63.14;97502.56;1754387;80;21739;-87
2022/07/17 09:02:32;;;;;;;2.25;0.60;;;;;;;17.64;62.22;97504.88;1762033;80;21013;-87
2022/07/17 09:04:58;;;;;;;3.15;1.27;;;;;;;17.85;61.15;97494.22;1768879;80;20915;-87
2022/07/17 09:07:23;;;;;;;6.78;3.55;;;;;;;18.10;61.27;97501.55;1768777;80;21349;-87
2022/07/17 09:09:53;;;;;;;7.92;4.95;;;;;;;17.98;59.63;97501.33;1768573;80;22211;-87
2022/07/17 09:12:27;;;;;;;2.77;1.37;;;;;;;18.02;59.76;97510.42;1768892;80;21002;-87
2022/07/17 09:14:52;;;;;;;4.37;1.47;;;;;;;17.97;59.91;97517.61;1747894;81;21405;-87
2022/07/17 09:17:18;;;;;;;2.77;1.45;;;;;;;17.81;60.25;97517.18;1747925;81;21100;-87
2022/07/17 09:19:47;;;;;;;3.40;0.80;;;;;;;17.73;60.80;97515.53;1760370;80;20963;-87
2022/07/17 09:22:21;;;;;;;4.67;0.80;;;;;;;17.89;61.22;97515.66;1762367;81;20975;-84
2022/07/17 09:24:54;;;;;;;3.00;0.95;;;;;;;17.82;60.24;97518.30;1761403;80;20976;-84
2022/07/17 09:27:31;;;;;;;2.72;0.80;;;;;;;18.05;59.41;97517.09;1762385;80;20987;-87
2022/07/17 09:30:10;;;;;;;2.35;0.80;;;;;;;18.32;60.47;97510.03;1762107;81;21007;-87
2022/07/17 09:32:38;;;;;;;3.65;0.98;;;;;;;18.67;59.72;97510.63;1762465;81;21399;-87
2022/07/17 09:35:08;;;;;;;3.58;1.60;;;;;;;18.94;58.89;97511.39;1762240;81;20941;-87
2022/07/17 09:37:34;;;;;;;1.87;0.62;;;;;;;18.96;59.05;97512.80;1762379;81;21071;-88
2022/07/17 09:40:01;;;;;;;3.60;1.20;;;;;;;19.03;58.16;97514.89;1750892;80;21089;-88
2022/07/17 09:42:33;;;;;;;3.47;0.72;;;;;;;18.82;57.55;97519.92;1763361;80;20971;-87
2022/07/17 09:45:03;;;;;;;1.87;1.10;;;;;;;18.78;57.53;97521.86;1762700;80;21006;-87
2022/07/17 09:47:30;;;;;;;2.72;0.62;;;;;;;18.95;57.22;97519.09;1761511;80;20979;-87
2022/07/17 09:49:57;;;;;;;3.75;0.72;;;;;;;19.13;55.46;97516.59;1761407;80;21047;-84
2022/07/17 09:52:25;;;;;;;1.27;0.60;;;;;;;19.29;54.91;97512.69;1761575;80;21035;-85
2022/07/17 09:54:53;;;;;;;1.65;0.90;;;;;;;19.46;52.66;97516.97;1761742;80;20960;-85
2022/07/17 09:57:25;;;;;;;2.10;0.95;;;;;;;19.34;54.46;97510.73;1734182;81;20971;-84
2022/07/17 09:59:53;;;;;;;;;;;;;;;19.27;55.94;97521.82;1753570;81;20944;-84
2022/07/17 10:02:20;;;;;;;2.45;0.65;;;;;;;19.23;55.91;97526.70;1782135;80;20156;-87
2022/07/17 10:04:47;;;;;;;1.62;0.55;;;;;;;19.02;55.18;97522.50;1742941;81;20999;-87
2022/07/17 10:07:13;;;;;;;4.40;2.55;;;;;;;19.03;54.88;97518.84;1764114;81;20975;-86
2022/07/17 10:09:39;;;;;;;2.95;0.80;;;;;;;19.22;53.90;97516.37;1764280;81;21350;-87
2022/07/17 10:12:07;;;;;;;2.33;0.70;;;;;;;19.34;53.42;97510.73;1764282;81;21019;-87
2022/07/17 10:14:33;;;;;;;4.12;1.10;;;;;;;19.50;52.44;97509.73;1764200;81;21054;-87
2022/07/17 10:17:09;;;;;;;2.77;0.70;;;;;;;19.38;54.64;97510.13;1764214;80;20959;-87
2022/07/17 10:19:56;;;;;;;2.45;0.70;;;;;;;19.25;54.62;97510.17;1763453;80;21027;-87
2022/07/17 10:22:22;;;;;;;1.82;0.78;;;;;;;19.11;55.08;97516.50;1764319;81;20950;-84
2022/07/17 10:24:56;;;;;;;2.55;0.50;;;;;;;19.06;54.32;97508.42;1764252;80;20981;-85
2022/07/17 10:27:26;;;;;;;1.55;0.55;;;;;;;19.25;54.96;97514.13;1763779;81;21136;-87
2022/07/17 10:30:10;;;;;;;2.55;0.70;;;;;;;19.43;56.52;97512.12;1764365;81;21002;-87
2022/07/17 10:32:36;;;;;;;3.65;0.80;;;;;;;19.54;53.55;97520.72;1764328;81;20987;-87
2022/07/17 10:35:08;;;;;;;3.37;1.47;;;;;;;19.63;54.33;97518.13;1764192;81;20995;-88
2022/07/17 10:37:40;;;;;;;4.70;1.80;;;;;;;19.45;53.44;97528.02;1764431;81;20991;-87
2022/07/17 10:40:16;;;;;;;3.37;1.02;;;;;;;19.17;53.12;97523.06;1764343;81;21018;-84
2022/07/17 10:42:59;;;;;;;1.95;0.80;;;;;;;19.15;53.63;97514.55;1764199;81;20979;-87
2022/07/17 10:45:33;;;;;;;2.67;0.80;;;;;;;19.36;53.42;97520.07;1764239;80;21006;-87
2022/07/17 10:48:15;;;;;;;2.98;0.95;;;;;;;19.48;52.48;97521.52;1772904;81;20963;-87
2022/07/17 10:50:49;;;;;;;1.52;0.55;;;;;;;19.68;51.97;97528.84;1772254;80;21014;-87
2022/07/17 10:53:28;;;;;;;2.33;0.60;;;;;;;19.75;53.00;97526.19;1772989;81;20983;-86
2022/07/17 10:56:03;;;;;;;3.00;0.60;;;;;;;19.85;51.26;97519.11;1752748;81;20978;-86
2022/07/17 10:58:33;;;;;;;5.75;0.57;;;;;;;19.91;52.85;97516.95;1772658;81;21067;-84
2022/07/17 11:01:16;;;;;;;1.70;0.60;;;;;;;20.07;51.26;97511.16;1751291;81;21003;-87
2022/07/17 11:03:57;;;;;;;1.60;0.50;;;;;;;19.96;52.53;97505.25;1772580;81;20963;-86
2022/07/17 11:06:30;;;;;;;1.45;0.60;;;;;;;19.94;53.04;97512.05;1753135;81;21384;-86
2022/07/17 11:09:10;;;;;;;2.35;0.65;;;;;;;19.96;53.00;97508.69;1772903;80;20975;-85
2022/07/17 11:11:44;;;;;;;3.27;0.70;;;;;;;20.03;52.39;97503.39;1751879;80;20986;-86
2022/07/17 11:14:22;;;;;;;3.20;1.10;;;;;;;20.08;51.58;97506.18;1771898;81;21067;-86
2022/07/17 11:17:00;;;;;;;2.45;0.80;;;;;;;20.19;49.90;97509.97;1752726;80;21338;-84
2022/07/17 11:19:39;;;;;;;1.12;0.60;;;;;;;20.37;51.97;97502.09;1772511;81;21047;-86
2022/07/17 11:22:12;;;;;;;3.08;0.80;;;;;;;20.46;50.46;97503.97;1772679;81;21357;-84
2022/07/17 11:24:43;;;;;;;2.27;0.50;;;;;;;20.52;48.76;97511.84;1772754;80;20943;-85
2022/07/17 11:27:28;;;;;;;3.60;0.78;;;;;;;20.52;49.97;97499.16;1772979;81;20995;-85
2022/07/17 11:29:56;;;;;;;2.62;0.70;;;;;;;20.61;50.31;97499.96;1772115;80;21015;-85
2022/07/17 11:32:22;;;;;;;2.83;0.78;;;;;;;20.73;49.98;97496.61;1772735;81;20979;-87
2022/07/17 11:34:48;;;;;;;2.22;0.72;;;;;;;20.77;50.38;97493.30;1772854;80;20932;-85